createdAt,value
2018-09-06T00:02:17.495Z,13.80
2018-09-06T00:04:48.528Z,15.55
2018-09-06T00:07:19.391Z,15.30
2018-09-06T00:09:50.065Z,18.95
2018-09-06T00:12:20.767Z,16.60
2018-09-06T00:14:51.423Z,14.58
2018-09-06T00:17:22.083Z,16.37
2018-09-06T00:19:52.727Z,19.75
2018-09-06T00:22:23.391Z,15.13
2018-09-06T00:24:54.135Z,18.17
2018-09-06T00:27:24.819Z,22.20
2018-09-06T00:29:55.464Z,18.45
2018-09-06T00:32:26.151Z,20.05
2018-09-06T00:34:56.787Z,17.95
2018-09-06T00:37:27.451Z,16.48
2018-09-06T00:39:58.095Z,19.30
2018-09-06T00:42:28.774Z,17.05
2018-09-06T00:44:59.503Z,17.48
2018-09-06T00:47:30.495Z,19.15
2018-09-06T00:50:01.748Z,19.05
2018-09-06T00:52:32.414Z,23.77
2018-09-06T00:55:03.147Z,20.97
2018-09-06T00:57:34.048Z,25.17
2018-09-06T01:00:05.014Z,24.47
2018-09-06T01:02:35.670Z,33.63
2018-09-06T01:05:06.983Z,40.38
2018-09-06T01:07:37.629Z,37.55
2018-09-06T01:10:08.664Z,37.98
2018-09-06T01:12:39.639Z,44.77
2018-09-06T01:15:10.309Z,45.17
2018-09-06T01:17:41.039Z,50.78
2018-09-06T01:20:11.715Z,51.75
2018-09-06T01:22:42.405Z,53.35
2018-09-06T01:25:13.055Z,51.23
2018-09-06T01:27:43.731Z,54.23
2018-09-06T01:30:14.083Z,50.60
2018-09-06T01:32:44.793Z,53.13
2018-09-06T01:35:15.649Z,48.25
2018-09-06T01:37:46.067Z,52.30
2018-09-06T01:40:16.731Z,45.00
2018-09-06T01:42:47.399Z,48.42
2018-09-06T01:45:18.038Z,51.23
2018-09-06T01:47:48.699Z,51.65
2018-09-06T01:50:19.347Z,54.80
2018-09-06T01:52:50.006Z,53.63
2018-09-06T01:55:20.680Z,57.58
2018-09-06T01:57:51.032Z,51.50
2018-09-06T02:00:21.694Z,52.70
2018-09-06T02:02:52.331Z,51.73
2018-09-06T02:05:28.476Z,53.23
2018-09-06T02:07:59.875Z,61.50
2018-09-06T02:10:30.546Z,63.08
2018-09-06T02:13:01.370Z,56.25
2018-09-06T02:15:32.414Z,60.17
2018-09-06T02:18:03.087Z,57.25
2018-09-06T02:20:34.100Z,56.42
2018-09-06T02:23:04.962Z,64.32
2018-09-06T02:25:35.654Z,49.73
2018-09-06T02:28:06.574Z,49.23
2018-09-06T02:30:37.224Z,51.55
2018-09-06T02:33:07.635Z,51.63
2018-09-06T02:35:38.294Z,47.70
2018-09-06T02:38:08.968Z,53.92
2018-09-06T02:40:40.465Z,56.37
2018-09-06T02:43:13.080Z,49.10
2018-09-06T02:45:44.631Z,49.83
2018-09-06T02:48:15.268Z,53.55
2018-09-06T02:50:51.294Z,54.23
2018-09-06T02:53:21.962Z,47.93
2018-09-06T02:55:52.660Z,56.13
2018-09-06T02:58:23.303Z,52.55
2018-09-06T03:00:53.974Z,55.78
2018-09-06T03:03:24.682Z,49.55
2018-09-06T03:05:55.357Z,61.35
2018-09-06T03:08:26.030Z,49.48
2018-09-06T03:11:10.263Z,54.03
2018-09-06T03:13:40.903Z,44.70
2018-09-06T03:16:11.630Z,54.77
2018-09-06T03:18:42.290Z,58.28
2018-09-06T03:21:13.258Z,54.15
2018-09-06T03:23:44.379Z,64.30
2018-09-06T03:26:16.026Z,51.45
2018-09-06T03:28:48.524Z,43.60
2018-09-06T03:31:18.895Z,60.20
2018-09-06T03:33:50.059Z,57.75
2018-09-06T03:36:20.731Z,65.67
2018-09-06T03:38:51.387Z,56.20
2018-09-06T03:41:22.042Z,52.48
2018-09-06T03:43:52.707Z,55.75
2018-09-06T03:46:23.376Z,53.50
2018-09-06T03:48:53.738Z,52.07
2018-09-06T03:51:24.378Z,59.00
2018-09-06T03:53:55.039Z,53.48
2018-09-06T03:56:25.670Z,55.45
2018-09-06T03:58:56.678Z,53.42
2018-09-06T04:01:27.346Z,59.45
2018-09-06T04:03:58.015Z,51.80
2018-09-06T04:06:28.655Z,66.00
2018-09-06T04:08:59.331Z,72.55
2018-09-06T04:11:29.978Z,74.87
2018-09-06T04:14:00.639Z,64.20
2018-09-06T04:16:31.266Z,53.78
2018-09-06T04:19:01.924Z,55.92
2018-09-06T04:21:32.758Z,47.30
2018-09-06T04:24:03.825Z,55.65
2018-09-06T04:26:34.473Z,56.40
2018-09-06T04:29:05.282Z,65.42
2018-09-06T04:31:36.595Z,61.23
2018-09-06T04:34:07.242Z,63.70
2018-09-06T04:36:38.221Z,57.27
2018-09-06T04:39:10.450Z,60.23
2018-09-06T04:41:41.098Z,63.15
2018-09-06T04:44:11.755Z,48.25
2018-09-06T04:46:45.279Z,51.80
2018-09-06T04:49:16.199Z,49.83
2018-09-06T04:51:47.251Z,50.23
2018-09-06T04:54:18.054Z,51.23
2018-09-06T04:56:48.826Z,57.62
2018-09-06T04:59:19.668Z,53.85
2018-09-06T05:01:50.328Z,67.47
2018-09-06T05:04:21.020Z,64.97
2018-09-06T05:06:51.864Z,58.28
2018-09-06T05:09:22.517Z,64.92
2018-09-06T05:11:53.183Z,67.70
2018-09-06T05:14:23.831Z,59.45
2018-09-06T05:16:54.492Z,66.87
2018-09-06T05:19:25.152Z,66.62
2018-09-06T05:21:55.915Z,64.65
2018-09-06T05:24:26.759Z,65.28
2018-09-06T05:26:57.418Z,59.05
2018-09-06T05:29:28.077Z,66.70
2018-09-06T05:31:58.744Z,74.20
2018-09-06T05:34:28.570Z,55.52
2018-09-06T05:36:59.238Z,61.60
2018-09-06T05:39:29.918Z,54.33
2018-09-06T05:42:00.583Z,73.55
2018-09-06T05:44:31.219Z,52.40
2018-09-06T05:47:02.052Z,53.00
2018-09-06T05:49:32.710Z,49.15
2018-09-06T05:52:03.402Z,51.18
2018-09-06T05:54:34.030Z,58.25
2018-09-06T05:57:05.063Z,48.83
2018-09-06T05:59:35.492Z,60.13
2018-09-06T06:02:07.145Z,65.75
2018-09-06T06:04:37.858Z,61.60
2018-09-06T06:07:08.835Z,64.15
2018-09-06T06:09:39.511Z,65.78
2018-09-06T06:12:10.180Z,70.37
2018-09-06T06:14:41.010Z,75.87
2018-09-06T06:17:11.654Z,63.58
2018-09-06T06:19:42.274Z,61.80
2018-09-06T06:22:12.955Z,56.92
2018-09-06T06:24:43.799Z,64.42
2018-09-06T06:27:14.461Z,67.62
2018-09-06T06:29:45.101Z,63.68
2018-09-06T06:32:15.806Z,78.67
2018-09-06T06:34:46.675Z,67.70
2018-09-06T06:37:17.352Z,71.22
2018-09-06T06:39:48.006Z,75.30
2018-09-06T06:42:18.879Z,67.67
2018-09-06T06:44:49.743Z,64.75
2018-09-06T06:47:20.385Z,62.50
2018-09-06T06:49:51.226Z,68.12
2018-09-06T06:52:21.891Z,66.70
2018-09-06T06:54:52.713Z,75.78
2018-09-06T06:57:23.394Z,68.72
2018-09-06T06:59:54.046Z,65.22
2018-09-06T07:02:24.723Z,71.72
2018-09-06T07:04:55.867Z,80.25
2018-09-06T07:07:26.541Z,63.33
2018-09-06T07:09:57.221Z,73.70
2018-09-06T07:12:27.916Z,69.15
2018-09-06T07:14:58.552Z,76.25
2018-09-06T07:17:29.431Z,70.28
2018-09-06T07:20:00.083Z,71.57
2018-09-06T07:22:30.942Z,74.42
2018-09-06T07:25:01.999Z,75.85
2018-09-06T07:27:32.834Z,57.48
2018-09-06T07:30:03.531Z,68.60
2018-09-06T07:32:34.193Z,72.42
2018-09-06T07:35:05.389Z,56.35
2018-09-06T07:37:36.235Z,58.00
2018-09-06T07:40:06.958Z,63.08
2018-09-06T07:42:37.594Z,64.90
2018-09-06T07:45:08.310Z,57.73
2018-09-06T07:47:38.938Z,59.30
2018-09-06T07:50:09.615Z,66.40
2018-09-06T07:52:40.463Z,58.13
2018-09-06T07:55:11.147Z,54.90
2018-09-06T07:57:41.522Z,52.30
2018-09-06T08:00:12.175Z,51.53
2018-09-06T08:02:42.834Z,51.42
2018-09-06T08:05:13.650Z,47.40
2018-09-06T08:07:44.334Z,50.65
2018-09-06T08:10:15.045Z,43.17
2018-09-06T08:12:45.392Z,51.73
2018-09-06T08:15:16.062Z,52.53
2018-09-06T08:17:46.681Z,48.68
2018-09-06T08:20:17.379Z,50.00
2018-09-06T08:22:48.058Z,54.67
2018-09-06T08:25:18.717Z,49.23
2018-09-06T08:27:49.376Z,41.23
2018-09-06T08:30:20.043Z,45.88
2018-09-06T08:32:50.694Z,54.00
2018-09-06T08:35:21.594Z,49.23
2018-09-06T08:37:52.257Z,44.23
2018-09-06T08:40:22.952Z,44.60
2018-09-06T08:42:53.618Z,43.08
2018-09-06T08:45:24.377Z,46.68
2018-09-06T08:47:55.210Z,47.73
2018-09-06T08:50:26.417Z,50.40
2018-09-06T08:52:57.214Z,43.98
2018-09-06T08:55:27.779Z,43.57
2018-09-06T08:57:58.430Z,41.25
2018-09-06T09:00:29.101Z,39.53
2018-09-06T09:03:00.161Z,47.43
2018-09-06T09:05:30.947Z,46.42
2018-09-06T09:08:01.610Z,50.15
2018-09-06T09:10:32.605Z,52.75
2018-09-06T09:13:03.308Z,56.77
2018-09-06T09:15:34.186Z,54.15
2018-09-06T09:18:05.459Z,51.18
2018-09-06T09:20:36.152Z,51.65
2018-09-06T09:23:06.824Z,51.83
2018-09-06T09:25:37.838Z,47.53
2018-09-06T09:28:08.906Z,52.70
2018-09-06T09:30:39.584Z,51.25
2018-09-06T09:33:10.447Z,51.80
2018-09-06T09:35:41.831Z,46.20
2018-09-06T09:38:12.499Z,55.55
2018-09-06T09:40:43.151Z,47.62
2018-09-06T09:43:13.805Z,45.17
2018-09-06T09:45:44.641Z,46.83
2018-09-06T09:48:15.312Z,44.18
2018-09-06T09:53:16.079Z,51.15
2018-09-06T09:55:46.762Z,40.40
2018-09-06T09:58:17.421Z,43.78
2018-09-06T10:00:48.081Z,41.33
2018-09-06T10:03:24.067Z,41.45
2018-09-06T10:06:00.215Z,39.05
2018-09-06T10:08:36.655Z,40.05
2018-09-06T10:11:07.333Z,42.65
2018-09-06T10:13:38.023Z,39.03
2018-09-06T10:16:08.702Z,42.13
2018-09-06T10:18:39.387Z,47.05
2018-09-06T10:21:10.063Z,49.83
2018-09-06T10:23:40.739Z,51.35
2018-09-06T10:26:11.387Z,50.45
2018-09-06T10:28:42.262Z,42.25
2018-09-06T10:31:13.118Z,55.40
2018-09-06T10:33:43.798Z,53.03
2018-09-06T10:36:14.468Z,59.50
2018-09-06T10:38:45.455Z,50.15
2018-09-06T10:41:16.119Z,52.08
2018-09-06T10:43:46.874Z,52.23
2018-09-06T10:46:17.807Z,53.05
2018-09-06T10:48:48.855Z,55.33
2018-09-06T10:51:19.552Z,57.70
2018-09-06T10:53:49.935Z,45.60
2018-09-06T10:56:20.602Z,55.52
2018-09-06T10:58:52.494Z,58.05
2018-09-06T11:01:24.546Z,72.37
2018-09-06T11:03:56.532Z,62.60
2018-09-06T11:06:27.423Z,58.80
2018-09-06T11:08:58.136Z,65.42
2018-09-06T11:11:28.498Z,52.50
2018-09-06T11:13:58.897Z,49.23
2018-09-06T11:16:29.552Z,59.67
2018-09-06T11:19:00.207Z,63.02
2018-09-06T11:21:30.977Z,53.90
2018-09-06T11:24:01.778Z,66.70
2018-09-06T11:26:32.854Z,61.10
2018-09-06T11:29:03.210Z,66.30
2018-09-06T11:31:33.866Z,65.42
2018-09-06T11:34:04.609Z,62.65
2018-09-06T11:36:34.998Z,64.53
2018-09-06T11:39:07.958Z,61.90
2018-09-06T11:41:39.567Z,57.95
2018-09-06T11:44:10.235Z,62.55
2018-09-06T11:46:40.654Z,51.10
2018-09-06T11:49:11.174Z,60.83
2018-09-06T11:51:41.943Z,62.33
2018-09-06T11:54:12.618Z,57.73
2018-09-06T11:56:42.998Z,65.53
2018-09-06T11:59:13.730Z,59.25
2018-09-06T12:01:44.154Z,47.90
2018-09-06T12:04:14.799Z,54.70
2018-09-06T12:06:45.180Z,61.60
2018-09-06T12:09:15.560Z,58.67
2018-09-06T12:11:46.517Z,61.30
2018-09-06T12:14:17.522Z,53.68
2018-09-06T12:16:48.193Z,54.55
2018-09-06T12:19:19.262Z,57.85
2018-09-06T12:21:50.090Z,62.75
2018-09-06T12:24:20.958Z,54.80
2018-09-06T12:26:52.309Z,52.95
2018-09-06T12:29:23.039Z,54.87
2018-09-06T12:31:54.926Z,51.10
2018-09-06T12:34:25.330Z,52.07
2018-09-06T12:36:56.064Z,52.07
2018-09-06T12:39:26.454Z,48.47
2018-09-06T12:41:57.214Z,40.13
2018-09-06T12:44:27.883Z,40.83
2018-09-06T12:46:58.290Z,38.00
2018-09-06T12:49:28.997Z,35.65
2018-09-06T12:51:59.888Z,39.60
2018-09-06T12:54:30.590Z,32.23
2018-09-06T12:57:00.936Z,28.47
2018-09-06T12:59:31.651Z,30.63
2018-09-06T13:02:02.000Z,29.53
2018-09-06T13:04:32.374Z,26.03
2018-09-06T13:07:03.031Z,23.70
2018-09-06T13:09:33.399Z,28.13
2018-09-06T13:12:03.755Z,28.90
2018-09-06T13:14:34.476Z,23.73
2018-09-06T13:17:05.526Z,25.50
2018-09-06T13:19:36.233Z,24.57
2018-09-06T13:22:06.891Z,22.82
2018-09-06T13:24:37.589Z,22.15
2018-09-06T13:27:08.822Z,20.55
2018-09-06T13:29:39.642Z,25.20
2018-09-06T13:32:10.311Z,19.32
2018-09-06T13:34:41.018Z,22.70
2018-09-06T13:37:11.669Z,22.20
2018-09-06T13:39:42.354Z,22.13
2018-09-06T13:42:13.032Z,21.85
2018-09-06T13:44:43.669Z,20.43
2018-09-06T13:47:14.692Z,22.95
2018-09-06T13:49:45.335Z,22.42
2018-09-06T13:52:16.037Z,23.20
2018-09-06T13:54:46.887Z,22.60
2018-09-06T13:57:17.597Z,24.47
2018-09-06T13:59:48.324Z,29.33
2018-09-06T14:02:19.165Z,27.10
2018-09-06T14:04:49.876Z,23.73
2018-09-06T14:07:20.237Z,30.50
2018-09-06T14:09:50.599Z,32.10
2018-09-06T14:12:20.970Z,26.20
2018-09-06T14:14:51.323Z,34.43
2018-09-06T14:17:21.697Z,33.37
2018-09-06T14:19:52.055Z,31.27
2018-09-06T14:22:22.703Z,34.83
2018-09-06T14:24:53.394Z,39.48
2018-09-06T14:27:24.043Z,35.78
2018-09-06T14:29:54.427Z,36.90
2018-09-06T14:32:24.781Z,38.83
2018-09-06T14:34:55.523Z,40.55
2018-09-06T14:37:26.383Z,36.20
2018-09-06T14:39:57.026Z,41.95
2018-09-06T14:42:27.710Z,40.30
2018-09-06T14:44:58.114Z,52.43
2018-09-06T14:47:28.792Z,41.15
2018-09-06T14:49:59.458Z,38.35
2018-09-06T14:52:30.138Z,39.45
2018-09-06T14:55:00.775Z,42.65
2018-09-06T14:57:31.334Z,46.27
2018-09-06T15:00:02.315Z,43.98
2018-09-06T15:02:33.026Z,48.03
2018-09-06T15:05:03.766Z,41.40
2018-09-06T15:07:34.110Z,47.20
2018-09-06T15:10:05.399Z,44.58
2018-09-06T15:12:36.067Z,43.40
2018-09-06T15:15:06.697Z,44.70
2018-09-06T15:17:37.083Z,39.83
2018-09-06T15:20:07.515Z,47.93
2018-09-06T15:22:38.039Z,50.73
2018-09-06T15:25:08.398Z,46.60
2018-09-06T15:27:39.129Z,44.48
2018-09-06T15:30:09.666Z,39.75
2018-09-06T15:32:40.540Z,41.90
2018-09-06T15:35:10.906Z,42.53
2018-09-06T15:37:41.306Z,46.57
2018-09-06T15:40:11.675Z,43.03
2018-09-06T15:42:42.083Z,42.60
2018-09-06T15:45:12.456Z,47.13
2018-09-06T15:47:42.863Z,46.37
2018-09-06T15:50:13.231Z,45.50
2018-09-06T15:52:43.614Z,47.40
2018-09-06T15:55:14.286Z,39.03
2018-09-06T15:57:44.666Z,41.80
2018-09-06T16:00:15.063Z,40.07
2018-09-06T16:02:45.446Z,40.93
2018-09-06T16:05:15.831Z,39.67
2018-09-06T16:07:46.257Z,38.67
2018-09-06T16:10:16.827Z,32.60
2018-09-06T16:12:47.194Z,33.37
2018-09-06T16:15:17.591Z,37.60
2018-09-06T16:17:48.234Z,36.23
2018-09-06T16:20:18.955Z,34.95
2018-09-06T16:22:49.341Z,31.43
2018-09-06T16:25:20.285Z,32.70
2018-09-06T16:27:50.982Z,28.27
2018-09-06T16:30:22.092Z,28.70
2018-09-06T16:32:52.579Z,31.57
2018-09-06T16:35:22.951Z,33.10
2018-09-06T16:37:53.297Z,30.47
2018-09-06T16:40:23.665Z,37.27
2018-09-06T16:42:54.012Z,32.83
2018-09-06T16:45:24.840Z,40.47
2018-09-06T16:47:55.194Z,34.67
2018-09-06T16:50:25.579Z,32.90
2018-09-06T16:52:56.250Z,34.83
2018-09-06T16:55:26.660Z,28.13
2018-09-06T16:57:57.042Z,32.57
2018-09-06T17:00:27.415Z,27.53
2018-09-06T17:02:57.792Z,30.03
2018-09-06T17:05:28.122Z,29.43
2018-09-06T17:07:58.787Z,27.67
2018-09-06T17:10:29.132Z,31.97
2018-09-06T17:12:59.686Z,33.67
2018-09-06T17:15:30.162Z,31.13
2018-09-06T17:18:00.575Z,33.53
2018-09-06T17:20:30.978Z,32.97
2018-09-06T17:23:01.836Z,34.88
2018-09-06T17:25:32.183Z,31.83
2018-09-06T17:28:02.571Z,31.03
2018-09-06T17:30:32.922Z,31.67
2018-09-06T17:33:03.303Z,33.47
2018-09-06T17:35:33.849Z,30.23
2018-09-06T17:38:04.756Z,29.77
2018-09-06T17:40:35.279Z,33.40
2018-09-06T17:43:05.677Z,32.43
2018-09-06T17:45:36.376Z,24.72
2018-09-06T17:48:07.425Z,16.17
2018-09-06T17:50:38.095Z,12.37
2018-09-06T17:53:08.486Z,11.10
2018-09-06T17:55:38.894Z,10.70
2018-09-06T17:58:09.514Z,9.87
2018-09-06T18:00:44.323Z,10.20
2018-09-06T18:03:15.690Z,9.95
2018-09-06T18:05:46.402Z,8.73
2018-09-06T18:08:17.419Z,9.98
2018-09-06T18:10:48.108Z,13.13
2018-09-06T18:13:18.934Z,12.65
2018-09-06T18:15:49.661Z,12.93
2018-09-06T18:18:20.306Z,12.23
2018-09-06T18:20:50.974Z,12.07
2018-09-06T18:23:21.618Z,14.90
2018-09-06T18:25:51.999Z,12.90
2018-09-06T18:28:22.774Z,14.55
2018-09-06T18:30:53.751Z,14.15
2018-09-06T18:33:24.477Z,13.95
2018-09-06T18:35:55.641Z,15.35
2018-09-06T18:38:26.331Z,14.33
2018-09-06T18:40:56.974Z,13.22
2018-09-06T18:43:27.702Z,13.78
2018-09-06T18:45:58.588Z,14.28
2018-09-06T18:48:29.411Z,15.28
2018-09-06T18:51:00.054Z,14.98
2018-09-06T18:53:30.942Z,16.00
2018-09-06T18:56:01.616Z,16.37
2018-09-06T18:58:32.246Z,18.42
2018-09-06T19:01:02.922Z,16.15
2018-09-06T19:03:33.558Z,16.27
2018-09-06T19:06:04.594Z,20.25
2018-09-06T19:08:35.257Z,17.75
2018-09-06T19:11:06.147Z,15.30
2018-09-06T19:13:36.984Z,18.75
2018-09-06T19:16:07.652Z,17.20
2018-09-06T19:18:38.314Z,18.95
2018-09-06T19:21:08.987Z,17.55
2018-09-06T19:23:39.637Z,18.00
2018-09-06T19:26:10.430Z,19.12
2018-09-06T19:28:41.179Z,23.00
2018-09-06T19:31:12.187Z,19.37
2018-09-06T19:33:42.836Z,23.25
2018-09-06T19:36:13.509Z,22.62
2018-09-06T19:38:44.170Z,22.48
2018-09-06T19:41:14.830Z,25.27
2018-09-06T19:43:45.474Z,21.57
2018-09-06T19:46:16.159Z,26.97
2018-09-06T19:48:46.799Z,25.27
2018-09-06T19:51:17.466Z,28.60
2018-09-06T19:53:48.107Z,29.18
2018-09-06T19:56:18.783Z,25.55
2018-09-06T19:58:49.443Z,27.67
2018-09-06T20:01:20.110Z,25.80
2018-09-06T20:03:50.828Z,26.33
2018-09-06T20:06:21.691Z,22.75
2018-09-06T20:08:52.369Z,28.23
2018-09-06T20:11:22.747Z,28.60
2018-09-06T20:13:53.411Z,29.35
2018-09-06T20:16:24.398Z,30.92
2018-09-06T20:18:55.074Z,26.12
2018-09-06T20:21:25.743Z,29.92
2018-09-06T20:23:56.455Z,27.95
2018-09-06T20:26:27.189Z,28.20
2018-09-06T20:28:58.533Z,31.12
2018-09-06T20:31:29.326Z,30.50
2018-09-06T20:34:00.955Z,33.35
2018-09-06T20:36:31.614Z,34.85
2018-09-06T20:39:02.340Z,29.55
2018-09-06T20:41:34.178Z,33.30
2018-09-06T20:44:06.215Z,33.45
2018-09-06T20:46:37.830Z,33.65
2018-09-06T20:49:11.674Z,34.25
2018-09-06T20:51:43.261Z,31.82
2018-09-06T20:54:14.056Z,33.88
2018-09-06T20:56:44.702Z,33.50
2018-09-06T20:59:15.426Z,34.30
2018-09-06T21:01:46.602Z,34.35
2018-09-06T21:04:17.261Z,34.63
2018-09-06T21:06:47.926Z,34.48
2018-09-06T21:09:18.558Z,35.33
2018-09-06T21:11:49.237Z,31.55
2018-09-06T21:14:19.859Z,29.95
2018-09-06T21:16:50.519Z,32.63
2018-09-06T21:19:21.177Z,27.93
2018-09-06T21:21:51.845Z,22.35
2018-09-06T21:24:22.497Z,28.50
2018-09-06T21:26:53.171Z,20.10
2018-09-06T21:29:23.842Z,28.20
2018-09-06T21:31:54.509Z,24.65
2018-09-06T21:34:25.227Z,25.32
2018-09-06T21:36:55.938Z,21.97
2018-09-06T21:39:26.602Z,25.43
2018-09-06T21:41:57.285Z,18.98
2018-09-06T21:44:27.960Z,19.40
2018-09-06T21:46:58.663Z,20.57
2018-09-06T21:49:29.310Z,20.80
2018-09-06T21:51:59.986Z,23.02
2018-09-06T21:54:30.660Z,21.10
2018-09-06T21:57:01.343Z,25.23
2018-09-06T21:59:32.001Z,19.37
2018-09-06T22:02:02.691Z,23.25
2018-09-06T22:04:33.358Z,22.87
2018-09-06T22:07:04.039Z,19.40
2018-09-06T22:09:34.706Z,22.35
2018-09-06T22:12:09.485Z,26.17
2018-09-06T22:14:40.158Z,22.13
2018-09-06T22:17:10.813Z,21.45
2018-09-06T22:19:41.842Z,23.42
2018-09-06T22:22:12.515Z,22.05
2018-09-06T22:24:43.869Z,19.80
2018-09-06T22:27:14.887Z,21.97
2018-09-06T22:29:45.562Z,22.20
2018-09-06T22:32:16.194Z,17.45
2018-09-06T22:34:46.871Z,17.23
2018-09-06T22:37:17.506Z,17.75
2018-09-06T22:39:48.179Z,17.37
2018-09-06T22:42:18.818Z,17.57
2018-09-06T22:44:49.532Z,14.47
2018-09-06T22:47:20.493Z,13.05
2018-09-06T22:49:51.161Z,17.48
2018-09-06T22:52:21.847Z,14.90
2018-09-06T22:54:52.482Z,12.47
2018-09-06T22:57:23.143Z,14.75
2018-09-06T22:59:53.798Z,12.58
2018-09-06T23:02:28.700Z,12.65
2018-09-06T23:04:59.522Z,13.60
2018-09-06T23:07:30.252Z,13.35
2018-09-06T23:10:00.924Z,14.10
2018-09-06T23:12:31.883Z,12.93
2018-09-06T23:15:02.528Z,13.13
2018-09-06T23:17:33.389Z,12.55
2018-09-06T23:20:04.094Z,13.28
2018-09-06T23:22:39.651Z,10.68
2018-09-06T23:25:10.333Z,14.78
2018-09-06T23:27:41.015Z,11.28
2018-09-06T23:30:11.682Z,11.68
2018-09-06T23:32:42.381Z,12.05
2018-09-06T23:35:13.062Z,11.35
2018-09-06T23:37:43.726Z,11.30
2018-09-06T23:40:14.358Z,12.13
2018-09-06T23:42:45.023Z,12.20
2018-09-06T23:45:15.706Z,11.78
2018-09-06T23:47:46.361Z,11.28
2018-09-06T23:50:17.053Z,9.43
2018-09-06T23:52:47.904Z,12.75
2018-09-06T23:55:18.590Z,9.85
2018-09-06T23:57:49.214Z,11.10
